KBPI/BPI METAR and TAF weather

Enter ICAO airport designator
Station Type Date Time Source
KBPI METAR 2021/09/28 16:53 UTC NOAA

KBPI 281653Z AUTO 14004KT 10SM CLR 12/M03 A2992 RMK AO2 SLP069 T01171033


Station Type Date Time Source
KBPI Decoded METAR 2021/09/28 16:53 UTC NOAA

BIG PINEY-MARBLETON AIRPORT, WY, United States (KBPI) 42-35N 110-06W 2117M
Sep 28, 2021 - 12:53 PM EDT / 2021.09.28 1653 UTC
Wind: from the SE (140 degrees) at 5 MPH (4 KT):0
Visibility: 10 mile(s):0
Sky conditions: clear
Temperature: 53.1 F (11.7 C)
Dew Point: 26.1 F (-3.3 C)
Relative Humidity: 34%
Pressure (altimeter): 29.92 in. Hg (1013 hPa)
ob: KBPI 281653Z AUTO 14004KT 10SM CLR 12/M03 A2992 RMK AO2 SLP069 T01171033
cycle: 17

Station Type Date Time Source
KBPI TAF 2021/09/28 12:24 UTC NOAA

TAF KBPI 281122Z 2812/2912 VRB05KT P6SM SKC
FM281700 29010G18KT P6SM BKN080
FM282100 30016G28KT P6SM BKN070
FM290200 30013G25KT P6SM OVC070
FM290400 34009KT P6SM VCSH OVC060

Example: see airport list